WZZ87P EDDF-LKPR
Flight info
| Callsign | WZZ87P |
|---|---|
| Flight time | 0h 44m |
| Altitude | 29000 |
| Route | SULUS5F SULUS Z650 TONSU Z35 ODOMO DCT LOMKI |
| Aircraft | A21N/M-SDE2E3FGHIRWXY/LB1 |
Departure
| Time | 2026-05-07 23:40 |
|---|---|
| Airport | Frankfurt Main Airport (EDDF) |
Arrival
| Time | 2026-05-08 00:24 |
|---|---|
| Airport | Václav Havel Airport Prague (LKPR) |
| Time | Latitude | Longitude | Altitude | Speed | Heading |
|---|---|---|---|---|---|
| 2026-05-07 23:21 | 50.04910 | 8.58866 | 368 ft | 0 kts | 160° |
| 2026-05-07 23:31 | 50.04924 | 8.58858 | 367 ft | 2 kts | 159° |
| 2026-05-07 23:32 | 50.04939 | 8.58849 | 365 ft | 2 kts | 159° |
| 2026-05-07 23:32 | 50.04954 | 8.58840 | 363 ft | 2 kts | 159° |
| 2026-05-07 23:32 | 50.04970 | 8.58832 | 369 ft | 2 kts | 174° |
| 2026-05-07 23:32 | 50.04985 | 8.58840 | 365 ft | 2 kts | 227° |
| 2026-05-07 23:33 | 50.04995 | 8.58860 | 365 ft | 2 kts | 241° |
| 2026-05-07 23:33 | 50.05001 | 8.58883 | 362 ft | 2 kts | 247° |
| 2026-05-07 23:33 | 50.05003 | 8.58889 | 362 ft | 0 kts | 248° |
| 2026-05-07 23:35 | 50.05003 | 8.58888 | 362 ft | 0 kts | 248° |
| 2026-05-07 23:35 | 50.04999 | 8.58873 | 364 ft | 4 kts | 248° |
| 2026-05-07 23:36 | 50.04993 | 8.58850 | 364 ft | 6 kts | 248° |
| 2026-05-07 23:36 | 50.04981 | 8.58801 | 367 ft | 8 kts | 249° |
| 2026-05-07 23:36 | 50.04953 | 8.58700 | 366 ft | 12 kts | 232° |
| 2026-05-07 23:36 | 50.04876 | 8.58690 | 371 ft | 12 kts | 160° |
| 2026-05-07 23:37 | 50.04801 | 8.58734 | 372 ft | 11 kts | 160° |
| 2026-05-07 23:37 | 50.04737 | 8.58769 | 373 ft | 10 kts | 168° |
| 2026-05-07 23:37 | 50.04671 | 8.58764 | 373 ft | 9 kts | 187° |
| 2026-05-07 23:37 | 50.04648 | 8.58759 | 373 ft | 9 kts | 187° |
| 2026-05-07 23:38 | 50.04591 | 8.58727 | 374 ft | 9 kts | 215° |
| 2026-05-07 23:38 | 50.04542 | 8.58662 | 374 ft | 11 kts | 220° |
| 2026-05-07 23:38 | 50.04485 | 8.58575 | 373 ft | 12 kts | 238° |
| 2026-05-07 23:38 | 50.04469 | 8.58517 | 373 ft | 0 kts | 250° |
| 2026-05-07 23:39 | 50.04412 | 8.58276 | 372 ft | 55 kts | 250° |
| 2026-05-07 23:39 | 50.04206 | 8.57413 | 371 ft | 115 kts | 249° |
| 2026-05-07 23:39 | 50.03856 | 8.55936 | 383 ft | 168 kts | 250° |
| 2026-05-07 23:40 | 50.03419 | 8.54182 | 781 ft | 178 kts | 250° |
| 2026-05-07 23:40 | 50.03085 | 8.52833 | 1336 ft | 170 kts | 248° |
| 2026-05-07 23:40 | 50.02556 | 8.51235 | 2022 ft | 170 kts | 228° |
| 2026-05-07 23:40 | 50.01566 | 8.50051 | 2291 ft | 193 kts | 203° |
| 2026-05-07 23:41 | 50.00240 | 8.49288 | 2686 ft | 211 kts | 191° |
| 2026-05-07 23:41 | 49.98767 | 8.49262 | 3324 ft | 216 kts | 163° |
| 2026-05-07 23:41 | 49.97465 | 8.50523 | 3765 ft | 232 kts | 127° |
| 2026-05-07 23:41 | 49.96574 | 8.52662 | 4469 ft | 239 kts | 117° |
| 2026-05-07 23:42 | 49.95937 | 8.54499 | 4965 ft | 252 kts | 116° |
| 2026-05-07 23:42 | 49.95099 | 8.56957 | 5510 ft | 267 kts | 117° |
| 2026-05-07 23:42 | 49.94313 | 8.59608 | 6302 ft | 273 kts | 105° |
| 2026-05-07 23:42 | 49.94002 | 8.62538 | 7102 ft | 278 kts | 94° |
| 2026-05-07 23:43 | 49.93877 | 8.65566 | 7917 ft | 282 kts | 93° |
| 2026-05-07 23:43 | 49.93808 | 8.66639 | 8203 ft | 284 kts | 98° |
| 2026-05-07 23:44 | 49.93528 | 8.68415 | 8690 ft | 286 kts | 111° |
| 2026-05-07 23:44 | 49.92446 | 8.70998 | 9516 ft | 288 kts | 136° |
| 2026-05-07 23:45 | 49.90890 | 8.72965 | 10340 ft | 291 kts | 144° |
| 2026-05-07 23:45 | 49.89217 | 8.74908 | 10730 ft | 312 kts | 139° |
| 2026-05-07 23:45 | 49.87792 | 8.77541 | 11043 ft | 333 kts | 123° |
| 2026-05-07 23:45 | 49.86579 | 8.80710 | 11413 ft | 351 kts | 119° |
| 2026-05-07 23:46 | 49.85381 | 8.84067 | 12071 ft | 359 kts | 119° |
| 2026-05-07 23:46 | 49.84165 | 8.87481 | 12839 ft | 363 kts | 119° |
| 2026-05-07 23:46 | 49.82935 | 8.90911 | 13660 ft | 366 kts | 119° |
| 2026-05-07 23:46 | 49.81697 | 8.94341 | 14401 ft | 370 kts | 119° |
| 2026-05-07 23:47 | 49.80430 | 8.97838 | 15094 ft | 374 kts | 120° |
| 2026-05-07 23:47 | 49.79145 | 9.01371 | 15782 ft | 378 kts | 120° |
| 2026-05-07 23:47 | 49.78297 | 9.03699 | 16233 ft | 381 kts | 120° |
| 2026-05-07 23:47 | 49.77450 | 9.06025 | 16684 ft | 383 kts | 120° |
| 2026-05-07 23:48 | 49.76291 | 9.09762 | 17323 ft | 389 kts | 110° |
| 2026-05-07 23:48 | 49.75546 | 9.13809 | 17957 ft | 394 kts | 101° |
| 2026-05-07 23:48 | 49.75279 | 9.18051 | 18554 ft | 399 kts | 89° |
| 2026-05-07 23:48 | 49.75500 | 9.22355 | 19086 ft | 404 kts | 82° |
| 2026-05-07 23:49 | 49.75885 | 9.26682 | 19628 ft | 408 kts | 81° |
| 2026-05-07 23:49 | 49.76333 | 9.31028 | 20182 ft | 411 kts | 80° |
| 2026-05-07 23:49 | 49.76825 | 9.35395 | 20716 ft | 414 kts | 79° |
| 2026-05-07 23:49 | 49.77341 | 9.39803 | 21263 ft | 418 kts | 79° |
| 2026-05-07 23:50 | 49.77869 | 9.44252 | 21793 ft | 421 kts | 79° |
| 2026-05-07 23:50 | 49.78392 | 9.48668 | 22309 ft | 424 kts | 79° |
| 2026-05-07 23:50 | 49.78922 | 9.53181 | 22808 ft | 428 kts | 79° |
| 2026-05-07 23:50 | 49.79449 | 9.57725 | 23302 ft | 430 kts | 79° |
| 2026-05-07 23:51 | 49.79976 | 9.62299 | 23767 ft | 433 kts | 79° |
| 2026-05-07 23:51 | 49.80505 | 9.66921 | 24149 ft | 436 kts | 79° |
| 2026-05-07 23:51 | 49.81034 | 9.71564 | 24537 ft | 439 kts | 79° |
| 2026-05-07 23:51 | 49.81563 | 9.76229 | 24928 ft | 441 kts | 79° |
| 2026-05-07 23:52 | 49.82093 | 9.80923 | 25295 ft | 444 kts | 79° |
| 2026-05-07 23:52 | 49.82625 | 9.85645 | 25663 ft | 446 kts | 79° |
| 2026-05-07 23:52 | 49.83157 | 9.90393 | 26029 ft | 448 kts | 79° |
| 2026-05-07 23:52 | 49.83689 | 9.95162 | 26377 ft | 451 kts | 79° |
| 2026-05-07 23:53 | 49.84223 | 9.99960 | 26719 ft | 453 kts | 79° |
| 2026-05-07 23:53 | 49.84749 | 10.04714 | 27076 ft | 455 kts | 79° |
| 2026-05-07 23:53 | 49.85283 | 10.09553 | 27423 ft | 456 kts | 79° |
| 2026-05-07 23:53 | 49.85818 | 10.14424 | 27730 ft | 459 kts | 79° |
| 2026-05-07 23:54 | 49.86353 | 10.19305 | 28041 ft | 461 kts | 79° |
| 2026-05-07 23:54 | 49.86889 | 10.24221 | 28349 ft | 463 kts | 79° |
| 2026-05-07 23:54 | 49.87426 | 10.29162 | 28651 ft | 465 kts | 79° |
| 2026-05-07 23:54 | 49.87962 | 10.34127 | 28970 ft | 466 kts | 79° |
| 2026-05-07 23:55 | 49.88498 | 10.39098 | 29114 ft | 467 kts | 79° |
| 2026-05-07 23:55 | 49.89029 | 10.44050 | 29115 ft | 466 kts | 79° |
| 2026-05-07 23:55 | 49.90084 | 10.53976 | 29118 ft | 466 kts | 78° |
| 2026-05-07 23:56 | 49.91124 | 10.63829 | 29118 ft | 466 kts | 78° |
| 2026-05-07 23:56 | 49.92163 | 10.73752 | 29119 ft | 466 kts | 79° |
| 2026-05-07 23:57 | 49.93193 | 10.83678 | 29114 ft | 465 kts | 79° |
| 2026-05-07 23:57 | 49.94213 | 10.93585 | 29110 ft | 464 kts | 79° |
| 2026-05-07 23:58 | 49.95224 | 11.03499 | 29110 ft | 464 kts | 79° |
| 2026-05-07 23:58 | 49.96226 | 11.13408 | 29112 ft | 464 kts | 79° |
| 2026-05-07 23:59 | 49.96973 | 11.23299 | 29110 ft | 466 kts | 88° |
| 2026-05-07 23:59 | 49.96849 | 11.33362 | 29112 ft | 465 kts | 91° |
| 2026-05-08 00:00 | 49.96536 | 11.43406 | 29110 ft | 466 kts | 91° |
| 2026-05-08 00:00 | 49.96183 | 11.53432 | 29105 ft | 465 kts | 92° |
| 2026-05-08 00:01 | 49.95833 | 11.63460 | 29097 ft | 464 kts | 92° |
| 2026-05-08 00:01 | 49.95486 | 11.73477 | 28972 ft | 464 kts | 92° |
| 2026-05-08 00:02 | 49.95310 | 11.78484 | 28577 ft | 464 kts | 92° |
| 2026-05-08 00:02 | 49.95134 | 11.83460 | 28125 ft | 456 kts | 92° |
| 2026-05-08 00:02 | 49.94958 | 11.88307 | 27830 ft | 443 kts | 92° |
| 2026-05-08 00:02 | 49.94788 | 11.93018 | 27624 ft | 430 kts | 92° |
| 2026-05-08 00:03 | 49.94659 | 11.97610 | 27397 ft | 423 kts | 91° |
| 2026-05-08 00:03 | 49.94558 | 12.02178 | 27175 ft | 423 kts | 91° |
| 2026-05-08 00:03 | 49.94471 | 12.06739 | 26866 ft | 422 kts | 91° |
| 2026-05-08 00:03 | 49.94387 | 12.11231 | 26405 ft | 421 kts | 91° |
| 2026-05-08 00:04 | 49.94300 | 12.15759 | 25916 ft | 418 kts | 91° |
| 2026-05-08 00:04 | 49.94208 | 12.20252 | 25441 ft | 415 kts | 91° |
| 2026-05-08 00:04 | 49.94113 | 12.24710 | 24994 ft | 411 kts | 91° |
| 2026-05-08 00:04 | 49.94014 | 12.29135 | 24563 ft | 408 kts | 91° |
| 2026-05-08 00:05 | 49.93911 | 12.33529 | 24124 ft | 405 kts | 91° |
| 2026-05-08 00:05 | 49.93777 | 12.37881 | 23696 ft | 403 kts | 92° |
| 2026-05-08 00:05 | 49.93636 | 12.42212 | 23206 ft | 400 kts | 92° |
| 2026-05-08 00:05 | 49.93501 | 12.46514 | 22708 ft | 397 kts | 91° |
| 2026-05-08 00:06 | 49.93372 | 12.50768 | 22220 ft | 394 kts | 91° |
| 2026-05-08 00:06 | 49.93245 | 12.55005 | 21744 ft | 392 kts | 91° |
| 2026-05-08 00:06 | 49.93119 | 12.59224 | 21272 ft | 389 kts | 91° |
| 2026-05-08 00:06 | 49.92993 | 12.63405 | 20809 ft | 387 kts | 91° |
| 2026-05-08 00:07 | 49.92868 | 12.67559 | 20350 ft | 385 kts | 91° |
| 2026-05-08 00:07 | 49.92744 | 12.71649 | 19883 ft | 382 kts | 91° |
| 2026-05-08 00:07 | 49.92617 | 12.75764 | 19418 ft | 380 kts | 91° |
| 2026-05-08 00:07 | 49.92490 | 12.79861 | 18958 ft | 378 kts | 91° |
| 2026-05-08 00:08 | 49.92361 | 12.83931 | 18496 ft | 376 kts | 91° |
| 2026-05-08 00:08 | 49.92233 | 12.87982 | 17991 ft | 375 kts | 91° |
| 2026-05-08 00:08 | 49.92102 | 12.92031 | 17489 ft | 374 kts | 91° |
| 2026-05-08 00:08 | 49.91974 | 12.95993 | 16994 ft | 371 kts | 91° |
| 2026-05-08 00:09 | 49.91841 | 13.00034 | 16506 ft | 368 kts | 91° |
| 2026-05-08 00:09 | 49.91709 | 13.03985 | 16022 ft | 365 kts | 91° |
| 2026-05-08 00:09 | 49.91580 | 13.07851 | 15550 ft | 362 kts | 91° |
| 2026-05-08 00:09 | 49.91449 | 13.11745 | 15078 ft | 360 kts | 91° |
| 2026-05-08 00:10 | 49.91317 | 13.15614 | 14621 ft | 358 kts | 91° |
| 2026-05-08 00:10 | 49.91184 | 13.19461 | 14166 ft | 356 kts | 91° |
| 2026-05-08 00:10 | 49.91051 | 13.23281 | 13691 ft | 353 kts | 91° |
| 2026-05-08 00:10 | 49.90918 | 13.27081 | 13185 ft | 351 kts | 91° |
| 2026-05-08 00:11 | 49.90784 | 13.30851 | 12688 ft | 348 kts | 91° |
| 2026-05-08 00:11 | 49.90650 | 13.34579 | 12195 ft | 344 kts | 92° |
| 2026-05-08 00:11 | 49.90517 | 13.38237 | 11726 ft | 341 kts | 92° |
| 2026-05-08 00:11 | 49.90384 | 13.41897 | 11273 ft | 339 kts | 92° |
| 2026-05-08 00:12 | 49.90250 | 13.45532 | 10845 ft | 336 kts | 92° |
| 2026-05-08 00:12 | 49.90117 | 13.49140 | 10445 ft | 334 kts | 92° |
| 2026-05-08 00:12 | 49.90016 | 13.52719 | 10087 ft | 327 kts | 88° |
| 2026-05-08 00:12 | 49.90358 | 13.56154 | 9698 ft | 318 kts | 69° |
| 2026-05-08 00:13 | 49.91317 | 13.59189 | 9294 ft | 310 kts | 57° |
| 2026-05-08 00:13 | 49.92444 | 13.61976 | 8902 ft | 303 kts | 55° |
| 2026-05-08 00:13 | 49.93565 | 13.64659 | 8517 ft | 294 kts | 55° |
| 2026-05-08 00:13 | 49.94655 | 13.67279 | 8138 ft | 283 kts | 55° |
| 2026-05-08 00:14 | 49.95692 | 13.69794 | 7839 ft | 270 kts | 55° |
| 2026-05-08 00:14 | 49.96449 | 13.71640 | 7661 ft | 257 kts | 56° |
| 2026-05-08 00:14 | 49.97406 | 13.73978 | 7466 ft | 254 kts | 56° |
| 2026-05-08 00:14 | 49.98352 | 13.76288 | 7262 ft | 253 kts | 56° |
| 2026-05-08 00:15 | 49.99299 | 13.78603 | 7071 ft | 252 kts | 56° |
| 2026-05-08 00:15 | 50.00225 | 13.80869 | 6867 ft | 251 kts | 56° |
| 2026-05-08 00:15 | 50.01160 | 13.83160 | 6617 ft | 250 kts | 56° |
| 2026-05-08 00:15 | 50.02088 | 13.85435 | 6351 ft | 249 kts | 56° |
| 2026-05-08 00:16 | 50.03015 | 13.87713 | 6072 ft | 248 kts | 56° |
| 2026-05-08 00:16 | 50.03828 | 13.89710 | 5853 ft | 247 kts | 56° |
| 2026-05-08 00:16 | 50.04727 | 13.91926 | 5623 ft | 236 kts | 56° |
| 2026-05-08 00:16 | 50.05585 | 13.94044 | 5394 ft | 226 kts | 55° |
| 2026-05-08 00:17 | 50.06415 | 13.96094 | 5157 ft | 222 kts | 55° |
| 2026-05-08 00:17 | 50.07313 | 13.98002 | 4947 ft | 220 kts | 43° |
| 2026-05-08 00:17 | 50.08532 | 13.99424 | 4705 ft | 215 kts | 21° |
| 2026-05-08 00:17 | 50.09933 | 14.00014 | 4460 ft | 210 kts | 0° |
| 2026-05-08 00:18 | 50.11364 | 13.99759 | 4237 ft | 206 kts | 339° |
| 2026-05-08 00:18 | 50.12616 | 13.98729 | 4040 ft | 203 kts | 319° |
| 2026-05-08 00:18 | 50.13586 | 13.97134 | 3998 ft | 203 kts | 307° |
| 2026-05-08 00:18 | 50.14477 | 13.95418 | 3987 ft | 205 kts | 316° |
| 2026-05-08 00:19 | 50.15744 | 13.94451 | 3996 ft | 207 kts | 350° |
| 2026-05-08 00:19 | 50.17159 | 13.94750 | 4001 ft | 209 kts | 19° |
| 2026-05-08 00:19 | 50.18451 | 13.95800 | 3995 ft | 211 kts | 28° |
| 2026-05-08 00:19 | 50.19702 | 13.96999 | 3996 ft | 211 kts | 28° |
| 2026-05-08 00:20 | 50.20846 | 13.98444 | 3994 ft | 214 kts | 46° |
| 2026-05-08 00:20 | 50.21559 | 14.00468 | 3992 ft | 216 kts | 78° |
| 2026-05-08 00:20 | 50.21339 | 14.02746 | 4009 ft | 216 kts | 116° |
| 2026-05-08 00:20 | 50.20528 | 14.04715 | 3992 ft | 213 kts | 126° |
| 2026-05-08 00:21 | 50.19621 | 14.06412 | 4013 ft | 198 kts | 132° |
| 2026-05-08 00:21 | 50.18772 | 14.08042 | 3893 ft | 195 kts | 125° |
| 2026-05-08 00:21 | 50.17969 | 14.09746 | 3621 ft | 194 kts | 126° |
| 2026-05-08 00:21 | 50.17157 | 14.11419 | 3342 ft | 189 kts | 126° |
| 2026-05-08 00:22 | 50.16386 | 14.13005 | 3084 ft | 179 kts | 125° |
| 2026-05-08 00:22 | 50.15652 | 14.14523 | 2853 ft | 173 kts | 125° |
| 2026-05-08 00:22 | 50.15171 | 14.15518 | 2692 ft | 174 kts | 125° |
| 2026-05-08 00:22 | 50.14438 | 14.17035 | 2451 ft | 175 kts | 125° |
| 2026-05-08 00:23 | 50.13472 | 14.19030 | 2122 ft | 174 kts | 124° |
| 2026-05-08 00:23 | 50.12976 | 14.20055 | 1950 ft | 173 kts | 124° |
| 2026-05-08 00:23 | 50.12261 | 14.21534 | 1712 ft | 172 kts | 124° |
| 2026-05-08 00:23 | 50.11540 | 14.23028 | 1469 ft | 172 kts | 124° |
| 2026-05-08 00:24 | 50.10815 | 14.24496 | 1275 ft | 168 kts | 124° |
| 2026-05-08 00:24 | 50.10152 | 14.25881 | 1194 ft | 149 kts | 124° |
| 2026-05-08 00:24 | 50.09714 | 14.26797 | 1220 ft | 53 kts | 127° |
| 2026-05-08 00:24 | 50.09534 | 14.27162 | 1217 ft | 41 kts | 124° |
| 2026-05-08 00:25 | 50.09422 | 14.27403 | 1221 ft | 13 kts | 115° |
| 2026-05-08 00:25 | 50.09436 | 14.27474 | 1221 ft | 6 kts | 30° |
| 2026-05-08 00:25 | 50.09488 | 14.27523 | 1218 ft | 14 kts | 32° |
| 2026-05-08 00:25 | 50.09591 | 14.27635 | 1212 ft | 20 kts | 33° |
| 2026-05-08 00:26 | 50.09660 | 14.27610 | 1210 ft | 11 kts | 315° |
| 2026-05-08 00:26 | 50.09719 | 14.27522 | 1209 ft | 12 kts | 317° |
| 2026-05-08 00:26 | 50.09784 | 14.27424 | 1209 ft | 14 kts | 315° |
| 2026-05-08 00:26 | 50.09858 | 14.27307 | 1208 ft | 16 kts | 311° |
| 2026-05-08 00:27 | 50.09933 | 14.27153 | 1209 ft | 19 kts | 307° |
| 2026-05-08 00:27 | 50.10019 | 14.26974 | 1206 ft | 23 kts | 307° |
| 2026-05-08 00:27 | 50.10125 | 14.26754 | 1201 ft | 28 kts | 306° |
| 2026-05-08 00:27 | 50.10241 | 14.26515 | 1198 ft | 28 kts | 306° |
| 2026-05-08 00:28 | 50.10357 | 14.26272 | 1193 ft | 28 kts | 307° |
| 2026-05-08 00:28 | 50.10424 | 14.26136 | 1190 ft | 8 kts | 307° |
| 2026-05-08 00:28 | 50.10443 | 14.26126 | 1189 ft | 3 kts | 20° |
| 2026-05-08 00:28 | 50.10504 | 14.26183 | 1182 ft | 17 kts | 34° |
| 2026-05-08 00:29 | 50.10534 | 14.26234 | 1177 ft | 2 kts | 92° |
| 2026-05-08 00:29 | 50.10509 | 14.26306 | 1180 ft | 14 kts | 124° |
| 2026-05-08 00:29 | 50.10442 | 14.26458 | 1177 ft | 17 kts | 124° |
| 2026-05-08 00:29 | 50.10386 | 14.26564 | 1183 ft | 11 kts | 124° |
| 2026-05-08 00:30 | 50.10387 | 14.26602 | 1182 ft | 5 kts | 49° |
| 2026-05-08 00:30 | 50.10413 | 14.26633 | 1179 ft | 0 kts | 33° |